createdAt,value
2022-12-11T00:00:55.951Z,0.00
2022-12-11T00:01:56.030Z,0.00
2022-12-11T00:02:55.973Z,0.00
2022-12-11T00:03:55.938Z,0.00
2022-12-11T00:04:55.930Z,0.00
2022-12-11T00:05:55.882Z,0.00
2022-12-11T00:06:55.881Z,0.00
2022-12-11T00:07:55.900Z,0.00
2022-12-11T00:08:55.879Z,0.00
2022-12-11T00:09:55.844Z,0.00
2022-12-11T00:10:55.819Z,0.00
2022-12-11T00:11:55.799Z,0.00
2022-12-11T00:12:55.789Z,0.00
2022-12-11T00:13:55.790Z,0.00
2022-12-11T00:14:55.796Z,0.00
2022-12-11T00:15:55.753Z,0.00
2022-12-11T00:16:55.828Z,0.00
2022-12-11T00:17:55.747Z,0.00
2022-12-11T00:18:55.754Z,0.00
2022-12-11T00:19:55.708Z,0.00
2022-12-11T00:20:55.699Z,0.00
2022-12-11T00:21:55.675Z,0.00
2022-12-11T00:22:55.681Z,0.00
2022-12-11T00:23:55.658Z,0.00
2022-12-11T00:24:55.646Z,0.00
2022-12-11T00:25:55.627Z,0.00
2022-12-11T00:26:55.616Z,0.00
2022-12-11T00:27:55.638Z,0.00
2022-12-11T00:28:55.630Z,0.00
2022-12-11T00:29:55.574Z,0.00
2022-12-11T00:30:55.594Z,0.00
2022-12-11T00:31:55.574Z,0.00
2022-12-11T00:32:55.543Z,0.00
2022-12-11T00:33:55.545Z,0.00
2022-12-11T00:34:55.522Z,0.00
2022-12-11T00:35:55.510Z,0.00
2022-12-11T00:36:55.492Z,0.00
2022-12-11T00:37:55.479Z,0.00
2022-12-11T00:38:55.475Z,0.00
2022-12-11T00:39:55.450Z,0.00
2022-12-11T00:40:55.442Z,0.00
2022-12-11T00:41:55.420Z,0.00
2022-12-11T00:42:55.412Z,0.00
2022-12-11T00:43:55.423Z,0.00
2022-12-11T00:44:55.381Z,0.00
2022-12-11T00:45:55.410Z,0.00
2022-12-11T00:46:55.359Z,0.00
2022-12-11T00:47:55.340Z,0.00
2022-12-11T00:48:55.373Z,0.00
2022-12-11T00:49:55.319Z,0.00
2022-12-11T00:50:55.310Z,0.00
2022-12-11T00:51:55.291Z,0.00
2022-12-11T00:52:55.287Z,0.00
2022-12-11T00:53:55.278Z,0.00
2022-12-11T00:54:55.260Z,0.00
2022-12-11T00:55:55.252Z,0.00
2022-12-11T00:56:55.242Z,0.00
2022-12-11T00:57:55.218Z,0.00
2022-12-11T00:58:55.215Z,0.00
2022-12-11T00:59:55.188Z,0.00
2022-12-11T01:00:55.243Z,0.00
2022-12-11T01:01:55.166Z,0.00
2022-12-11T01:02:55.211Z,0.00
2022-12-11T01:03:55.145Z,0.00
2022-12-11T01:04:55.136Z,0.00
2022-12-11T01:05:55.124Z,0.00
2022-12-11T01:06:55.107Z,0.00
2022-12-11T01:07:55.131Z,0.00
2022-12-11T01:08:55.103Z,0.00
2022-12-11T01:09:55.065Z,0.00
2022-12-11T01:10:55.123Z,0.00
2022-12-11T01:11:55.035Z,0.00
2022-12-11T01:12:55.023Z,0.00
2022-12-11T01:13:55.026Z,0.00
2022-12-11T01:14:55.004Z,0.00
2022-12-11T01:15:54.990Z,0.00
2022-12-11T01:16:55.019Z,0.00
2022-12-11T01:17:54.958Z,0.00
2022-12-11T01:18:54.959Z,0.00
2022-12-11T01:19:54.942Z,0.00
2022-12-11T01:20:54.920Z,0.00
2022-12-11T01:21:54.911Z,0.00
2022-12-11T01:22:54.899Z,0.00
2022-12-11T01:23:54.889Z,0.00
2022-12-11T01:24:54.868Z,0.00
2022-12-11T01:25:54.857Z,0.00
2022-12-11T01:26:54.848Z,0.00
2022-12-11T01:27:54.842Z,0.00
2022-12-11T01:28:54.831Z,0.00
2022-12-11T01:29:54.803Z,0.00
2022-12-11T01:30:54.818Z,0.00
2022-12-11T01:31:54.778Z,0.00
2022-12-11T01:32:54.768Z,0.00
2022-12-11T01:33:54.768Z,0.00
2022-12-11T01:34:54.738Z,0.00
2022-12-11T01:35:54.728Z,0.00
2022-12-11T01:36:54.716Z,0.00
2022-12-11T01:37:54.705Z,0.00
2022-12-11T01:38:54.717Z,0.00
2022-12-11T01:39:54.666Z,0.00
2022-12-11T01:40:54.664Z,0.00
2022-12-11T01:41:54.654Z,0.00
2022-12-11T01:42:54.652Z,0.00
2022-12-11T01:43:54.636Z,0.00
2022-12-11T01:44:54.624Z,0.00
2022-12-11T01:45:54.629Z,0.00
2022-12-11T01:46:54.584Z,0.00
2022-12-11T01:47:54.566Z,0.00
2022-12-11T01:48:54.582Z,0.00
2022-12-11T01:49:54.553Z,0.00
2022-12-11T01:50:54.544Z,0.00
2022-12-11T01:51:54.523Z,0.00
2022-12-11T01:52:54.524Z,0.00
2022-12-11T01:53:54.512Z,0.00
2022-12-11T01:54:54.485Z,0.00
2022-12-11T01:55:54.470Z,0.00
2022-12-11T01:56:54.460Z,0.00
2022-12-11T01:57:54.446Z,0.00
2022-12-11T01:58:54.451Z,0.00
2022-12-11T01:59:54.429Z,0.00
2022-12-11T02:00:54.468Z,0.00
2022-12-11T02:01:54.405Z,0.00
2022-12-11T02:02:54.423Z,0.00
2022-12-11T02:03:54.370Z,0.00
2022-12-11T02:04:54.363Z,0.00
2022-12-11T02:05:54.354Z,0.00
2022-12-11T02:06:54.330Z,0.00
2022-12-11T02:07:54.398Z,0.00
2022-12-11T02:08:54.308Z,0.00
2022-12-11T02:09:54.291Z,0.00
2022-12-11T02:10:54.306Z,0.00
2022-12-11T02:11:54.267Z,0.00
2022-12-11T02:12:54.261Z,0.00
2022-12-11T02:13:54.258Z,0.00
2022-12-11T02:14:54.233Z,0.00
2022-12-11T02:15:54.221Z,0.00
2022-12-11T02:16:54.229Z,0.00
2022-12-11T02:17:54.208Z,0.00
2022-12-11T02:18:54.197Z,0.00
2022-12-11T02:19:54.166Z,0.00
2022-12-11T02:20:54.156Z,0.00
2022-12-11T02:21:54.138Z,0.00
2022-12-11T02:22:54.134Z,0.00
2022-12-11T02:23:54.119Z,0.00
2022-12-11T02:24:54.105Z,0.00
2022-12-11T02:25:54.087Z,0.00
2022-12-11T02:26:54.074Z,0.00
2022-12-11T02:27:54.074Z,0.00
2022-12-11T02:28:54.069Z,0.00
2022-12-11T02:29:54.034Z,0.00
2022-12-11T02:30:54.034Z,0.00
2022-12-11T02:31:54.059Z,0.00
2022-12-11T02:32:54.010Z,0.00
2022-12-11T02:33:53.997Z,0.00
2022-12-11T02:34:53.974Z,0.00
2022-12-11T02:35:53.965Z,0.00
2022-12-11T02:36:53.953Z,0.00
2022-12-11T02:37:53.931Z,0.00
2022-12-11T02:38:53.940Z,0.00
2022-12-11T02:39:53.909Z,0.00
2022-12-11T02:40:53.900Z,0.00
2022-12-11T02:41:53.883Z,0.00
2022-12-11T02:42:53.870Z,0.00
2022-12-11T02:43:53.869Z,0.00
2022-12-11T02:44:53.850Z,0.00
2022-12-11T02:45:53.840Z,0.00
2022-12-11T02:46:53.836Z,0.00
2022-12-11T02:47:53.798Z,0.00
2022-12-11T02:48:53.809Z,0.00
2022-12-11T02:49:53.778Z,0.00
2022-12-11T02:50:53.775Z,0.00
2022-12-11T02:51:53.760Z,0.00
2022-12-11T02:53:08.504Z,0.00
2022-12-11T02:53:53.743Z,0.00
2022-12-11T02:54:53.726Z,0.00
2022-12-11T02:55:53.713Z,0.00
2022-12-11T02:56:53.685Z,0.00
2022-12-11T02:57:53.683Z,0.00
2022-12-11T02:58:58.284Z,0.00
2022-12-11T02:59:54.652Z,0.00
2022-12-11T03:00:53.632Z,0.00
2022-12-11T03:01:53.631Z,0.00
2022-12-11T03:02:53.622Z,0.00
2022-12-11T03:03:53.653Z,0.00
2022-12-11T03:04:53.579Z,0.00
2022-12-11T03:05:53.579Z,0.00
2022-12-11T03:06:53.562Z,0.00
2022-12-11T03:07:53.617Z,0.00
2022-12-11T03:08:53.555Z,0.00
2022-12-11T03:09:53.528Z,0.00
2022-12-11T03:10:53.528Z,0.00
2022-12-11T03:11:53.498Z,0.00
2022-12-11T03:12:54.107Z,0.00
2022-12-11T03:13:53.490Z,0.00
2022-12-11T03:14:53.452Z,0.00
2022-12-11T03:15:53.439Z,0.00
2022-12-11T03:16:53.426Z,0.00
2022-12-11T03:17:53.442Z,0.00
2022-12-11T03:18:53.423Z,0.00
2022-12-11T03:19:53.406Z,0.00
2022-12-11T03:20:53.377Z,0.00
2022-12-11T03:21:53.371Z,0.00
2022-12-11T03:22:53.363Z,0.00
2022-12-11T03:23:53.939Z,0.00
2022-12-11T03:24:53.361Z,0.00
2022-12-11T03:25:53.343Z,0.00
2022-12-11T03:26:56.499Z,0.00
2022-12-11T03:27:53.297Z,0.00
2022-12-11T03:28:53.286Z,0.00
2022-12-11T03:29:53.277Z,0.00
2022-12-11T03:30:53.302Z,0.00
2022-12-11T03:31:53.246Z,0.00
2022-12-11T03:32:53.230Z,0.00
2022-12-11T03:33:53.227Z,0.00
2022-12-11T03:34:58.027Z,0.00
2022-12-11T03:35:54.206Z,0.00
2022-12-11T03:36:53.172Z,0.00
2022-12-11T03:37:53.184Z,0.00
2022-12-11T03:38:53.152Z,0.00
2022-12-11T03:39:53.148Z,0.00
2022-12-11T03:40:53.112Z,0.00
2022-12-11T03:41:53.125Z,0.00
2022-12-11T03:42:53.120Z,0.00
2022-12-11T03:43:53.121Z,0.00
2022-12-11T03:44:53.081Z,0.00
2022-12-11T03:45:53.105Z,0.00
2022-12-11T03:46:53.051Z,0.00
2022-12-11T03:47:53.032Z,0.00
2022-12-11T03:48:53.049Z,0.00
2022-12-11T03:49:53.025Z,0.00
2022-12-11T03:50:53.002Z,0.00
2022-12-11T03:51:52.990Z,0.00
2022-12-11T03:52:52.968Z,0.00
2022-12-11T03:53:52.959Z,0.00
2022-12-11T03:54:52.947Z,0.00
2022-12-11T03:55:52.932Z,0.00
2022-12-11T03:56:52.928Z,0.00
2022-12-11T03:57:52.908Z,0.00
2022-12-11T03:58:52.910Z,0.00
2022-12-11T03:59:52.886Z,0.00
2022-12-11T04:00:52.878Z,0.00
2022-12-11T04:01:52.891Z,0.00
2022-12-11T04:02:52.836Z,0.00
2022-12-11T04:03:52.884Z,0.00
2022-12-11T04:04:52.835Z,0.00
2022-12-11T04:05:52.804Z,0.00
2022-12-11T04:06:52.794Z,0.00
2022-12-11T04:07:52.801Z,0.00
2022-12-11T04:08:52.776Z,0.00
2022-12-11T04:09:52.765Z,0.00
2022-12-11T04:10:52.743Z,0.00
2022-12-11T04:11:52.727Z,0.00
2022-12-11T04:12:52.731Z,0.00
2022-12-11T04:13:52.725Z,0.00
2022-12-11T04:14:52.702Z,0.00
2022-12-11T04:15:52.702Z,0.00
2022-12-11T04:16:52.675Z,0.00
2022-12-11T04:17:52.643Z,0.00
2022-12-11T04:18:52.675Z,0.00
2022-12-11T04:19:52.626Z,0.00
2022-12-11T04:20:52.610Z,0.00
2022-12-11T04:21:52.605Z,0.00
2022-12-11T04:22:52.591Z,0.00
2022-12-11T04:23:52.589Z,0.00
2022-12-11T04:24:52.558Z,0.00
2022-12-11T04:25:52.551Z,0.00
2022-12-11T04:26:52.542Z,0.00
2022-12-11T04:27:52.522Z,0.00
2022-12-11T04:28:52.538Z,0.00
2022-12-11T04:29:52.515Z,0.00
2022-12-11T04:30:52.593Z,0.00
2022-12-11T04:31:52.470Z,0.00
2022-12-11T04:32:52.468Z,0.00
2022-12-11T04:33:52.455Z,0.00
2022-12-11T04:34:52.437Z,0.00
2022-12-11T04:35:52.409Z,0.00
2022-12-11T04:36:52.405Z,0.00
2022-12-11T04:37:52.417Z,0.00
2022-12-11T04:38:52.393Z,0.00
2022-12-11T04:39:52.393Z,0.00
2022-12-11T04:40:52.346Z,0.00
2022-12-11T04:41:52.335Z,0.00
2022-12-11T04:42:52.341Z,0.00
2022-12-11T04:43:52.325Z,0.00
2022-12-11T04:44:52.303Z,0.00
2022-12-11T04:45:52.282Z,0.00
2022-12-11T04:46:52.331Z,0.00
2022-12-11T04:47:52.263Z,0.00
2022-12-11T04:48:57.042Z,0.00
2022-12-11T04:49:53.233Z,0.00
2022-12-11T04:50:52.234Z,0.00
2022-12-11T04:51:52.213Z,0.00
2022-12-11T04:52:52.210Z,0.00
2022-12-11T04:53:52.234Z,0.00
2022-12-11T04:54:52.196Z,0.00
2022-12-11T04:55:52.161Z,0.00
2022-12-11T04:56:52.154Z,0.00
2022-12-11T04:57:52.133Z,0.00
2022-12-11T04:58:52.141Z,0.00
2022-12-11T04:59:52.110Z,0.00
2022-12-11T05:00:52.099Z,0.00
2022-12-11T05:01:52.113Z,0.00
2022-12-11T05:02:52.169Z,0.00
2022-12-11T05:03:52.051Z,0.00
2022-12-11T05:04:52.073Z,0.00
2022-12-11T05:05:52.029Z,0.00
2022-12-11T05:06:52.073Z,0.00
2022-12-11T05:07:52.039Z,0.00
2022-12-11T05:08:52.000Z,0.00
2022-12-11T05:09:51.986Z,0.00
2022-12-11T05:10:51.991Z,0.00
2022-12-11T05:11:51.963Z,0.00
2022-12-11T05:12:51.956Z,0.00
2022-12-11T05:13:51.928Z,0.00
2022-12-11T05:14:51.928Z,0.00
2022-12-11T05:15:51.949Z,0.00
2022-12-11T05:16:51.896Z,0.00
2022-12-11T05:17:51.874Z,0.00
2022-12-11T05:18:51.864Z,0.00
2022-12-11T05:19:51.867Z,0.00
2022-12-11T05:20:51.851Z,0.00
2022-12-11T05:21:51.826Z,0.00
2022-12-11T05:22:51.812Z,0.00
2022-12-11T05:23:51.793Z,0.00
2022-12-11T05:24:51.804Z,0.00
2022-12-11T05:25:51.782Z,0.00
2022-12-11T05:26:51.760Z,0.00
2022-12-11T05:27:51.764Z,0.00
2022-12-11T05:28:51.754Z,0.00
2022-12-11T05:29:57.763Z,0.00
2022-12-11T05:30:52.765Z,0.00
2022-12-11T05:31:51.692Z,0.00
2022-12-11T05:32:51.691Z,0.00
2022-12-11T05:33:51.673Z,0.00
2022-12-11T05:34:51.670Z,0.00
2022-12-11T05:35:51.680Z,0.00
2022-12-11T05:36:51.671Z,0.00
2022-12-11T05:37:51.624Z,0.00
2022-12-11T05:38:51.622Z,0.00
2022-12-11T05:39:51.619Z,0.00
2022-12-11T05:40:51.595Z,0.00
2022-12-11T05:41:51.567Z,0.00
2022-12-11T05:42:51.551Z,0.00
2022-12-11T05:43:51.539Z,0.00
2022-12-11T05:44:51.563Z,0.00
2022-12-11T05:45:51.508Z,0.00
2022-12-11T05:46:51.518Z,0.00
2022-12-11T05:47:51.497Z,0.00
2022-12-11T05:48:51.477Z,0.00
2022-12-11T05:49:51.478Z,0.00
2022-12-11T05:50:51.459Z,0.00
2022-12-11T05:51:51.438Z,0.00
2022-12-11T05:52:51.444Z,0.00
2022-12-11T05:53:51.423Z,0.00
2022-12-11T05:54:51.419Z,0.00
2022-12-11T05:55:51.389Z,0.00
2022-12-11T05:56:51.390Z,0.00
2022-12-11T05:57:51.366Z,0.00
2022-12-11T05:58:51.364Z,0.00
2022-12-11T05:59:51.355Z,0.00
2022-12-11T06:00:51.322Z,0.00
2022-12-11T06:01:51.463Z,0.00
2022-12-11T06:02:51.422Z,0.00
2022-12-11T06:03:51.283Z,0.00
2022-12-11T06:04:51.292Z,0.00
2022-12-11T06:05:51.261Z,0.00
2022-12-11T06:06:51.242Z,0.00
2022-12-11T06:07:51.272Z,0.00
2022-12-11T06:08:51.225Z,0.00
2022-12-11T06:09:51.210Z,0.00
2022-12-11T06:10:51.191Z,0.00
2022-12-11T06:11:51.191Z,0.00
2022-12-11T06:12:51.182Z,0.00
2022-12-11T06:13:51.160Z,0.00
2022-12-11T06:14:51.160Z,0.00
2022-12-11T06:15:51.131Z,0.00
2022-12-11T06:16:51.164Z,0.00
2022-12-11T06:17:51.109Z,0.00
2022-12-11T06:18:51.099Z,0.00
2022-12-11T06:19:51.083Z,0.00
2022-12-11T06:20:51.066Z,0.00
2022-12-11T06:21:51.050Z,0.00
2022-12-11T06:22:51.041Z,0.00
2022-12-11T06:23:51.028Z,0.00
2022-12-11T06:24:51.028Z,0.00
2022-12-11T06:25:51.010Z,0.00
2022-12-11T06:26:50.989Z,0.00
2022-12-11T06:27:50.998Z,0.00
2022-12-11T06:28:50.956Z,0.00
2022-12-11T06:29:50.965Z,0.00
2022-12-11T06:30:50.936Z,0.00
2022-12-11T06:31:50.955Z,0.00
2022-12-11T06:32:50.927Z,0.00
2022-12-11T06:33:50.896Z,0.00
2022-12-11T06:34:50.905Z,0.00
2022-12-11T06:35:50.864Z,0.00
2022-12-11T06:36:50.865Z,0.00
2022-12-11T06:37:50.873Z,0.00
2022-12-11T06:38:50.833Z,0.00
2022-12-11T06:39:50.832Z,0.00
2022-12-11T06:40:50.803Z,0.00
2022-12-11T06:41:50.793Z,0.00
2022-12-11T06:42:50.792Z,0.00
2022-12-11T06:43:50.788Z,0.00
2022-12-11T06:44:50.763Z,0.00
2022-12-11T06:45:50.789Z,0.00
2022-12-11T06:46:50.740Z,0.00
2022-12-11T06:47:50.711Z,0.00
2022-12-11T06:48:50.724Z,0.00
2022-12-11T06:49:52.127Z,0.00
2022-12-11T06:50:51.700Z,0.00
2022-12-11T06:51:50.662Z,0.00
2022-12-11T06:52:50.661Z,0.00
2022-12-11T06:53:50.662Z,0.00
2022-12-11T06:54:50.648Z,0.00
2022-12-11T06:55:50.616Z,0.00
2022-12-11T06:56:50.603Z,0.00
2022-12-11T06:57:50.592Z,0.00
2022-12-11T06:58:50.593Z,0.00
2022-12-11T06:59:50.573Z,0.00
2022-12-11T07:00:50.712Z,0.00
2022-12-11T07:01:50.588Z,0.00
2022-12-11T07:02:50.528Z,0.00
2022-12-11T07:03:50.510Z,0.00
2022-12-11T07:04:54.898Z,0.00
2022-12-11T07:05:50.488Z,0.00
2022-12-11T07:06:50.466Z,0.00
2022-12-11T07:07:50.471Z,0.00
2022-12-11T07:08:50.459Z,0.00
2022-12-11T07:09:50.462Z,0.00
2022-12-11T07:10:50.436Z,0.00
2022-12-11T07:11:50.408Z,0.00
2022-12-11T07:12:50.396Z,0.00
2022-12-11T07:13:50.391Z,5.62
2022-12-11T07:14:50.387Z,5.62
2022-12-11T07:15:50.365Z,5.62
2022-12-11T07:16:50.364Z,5.62
2022-12-11T07:17:50.336Z,5.62
2022-12-11T07:18:50.341Z,5.62
2022-12-11T07:19:50.313Z,5.62
2022-12-11T07:20:50.302Z,5.62
2022-12-11T07:21:50.283Z,5.62
2022-12-11T07:22:50.275Z,5.62
2022-12-11T07:23:50.271Z,5.62
2022-12-11T07:24:50.282Z,5.62
2022-12-11T07:25:50.245Z,5.62
2022-12-11T07:26:50.234Z,5.62
2022-12-11T07:27:50.200Z,5.62
2022-12-11T07:28:50.190Z,5.62
2022-12-11T07:29:50.192Z,5.62
2022-12-11T07:30:50.175Z,5.62
2022-12-11T07:31:50.182Z,5.62
2022-12-11T07:32:50.211Z,11.25
2022-12-11T07:33:50.134Z,11.25
2022-12-11T07:34:52.010Z,11.25
2022-12-11T07:35:50.109Z,11.25
2022-12-11T07:36:50.100Z,11.25
2022-12-11T07:37:50.079Z,11.25
2022-12-11T07:38:50.069Z,11.25
2022-12-11T07:39:50.083Z,11.25
2022-12-11T07:40:50.050Z,11.25
2022-12-11T07:41:50.028Z,11.25
2022-12-11T07:42:50.034Z,11.25
2022-12-11T07:43:50.008Z,16.88
2022-12-11T07:44:50.001Z,16.88
2022-12-11T07:45:50.041Z,16.88
2022-12-11T07:46:49.970Z,16.88
2022-12-11T07:47:49.956Z,16.88
2022-12-11T07:48:49.950Z,16.88
2022-12-11T07:49:49.951Z,16.88
2022-12-11T07:50:49.925Z,11.25
2022-12-11T07:51:49.895Z,11.25
2022-12-11T07:52:49.896Z,11.25
2022-12-11T07:53:49.879Z,16.88
2022-12-11T07:54:49.864Z,16.88
2022-12-11T07:55:49.855Z,16.88
2022-12-11T07:56:53.378Z,16.88
2022-12-11T07:57:49.816Z,16.88
2022-12-11T07:58:49.807Z,16.88
2022-12-11T07:59:49.832Z,16.88
2022-12-11T08:00:49.841Z,16.88
2022-12-11T08:01:49.772Z,16.88
2022-12-11T08:02:49.781Z,22.50
2022-12-11T08:03:49.742Z,22.50
2022-12-11T08:04:49.743Z,22.50
2022-12-11T08:05:49.722Z,22.50
2022-12-11T08:06:49.712Z,22.50
2022-12-11T08:07:49.733Z,22.50
2022-12-11T08:08:49.690Z,22.50
2022-12-11T08:09:49.681Z,22.50
2022-12-11T08:10:49.658Z,28.12
2022-12-11T08:11:49.644Z,28.12
2022-12-11T08:12:49.622Z,28.12
2022-12-11T08:13:49.619Z,28.12
2022-12-11T08:14:49.616Z,28.12
2022-12-11T08:15:49.595Z,28.12
2022-12-11T08:16:49.663Z,28.12
2022-12-11T08:17:49.574Z,28.12
2022-12-11T08:18:49.547Z,28.12
2022-12-11T08:19:49.559Z,28.12
2022-12-11T08:20:49.526Z,28.12
2022-12-11T08:21:49.529Z,28.12
2022-12-11T08:22:52.326Z,33.75
2022-12-11T08:23:50.538Z,33.75
2022-12-11T08:24:49.477Z,33.75
2022-12-11T08:25:49.461Z,39.38
2022-12-11T08:26:49.447Z,39.38
2022-12-11T08:27:49.439Z,39.38
2022-12-11T08:28:49.421Z,45.00
2022-12-11T08:29:49.444Z,45.00
2022-12-11T08:30:49.434Z,50.62
2022-12-11T08:31:49.390Z,50.62
2022-12-11T08:32:49.388Z,56.25
2022-12-11T08:33:49.357Z,56.25
2022-12-11T08:34:49.382Z,56.25
2022-12-11T08:35:49.337Z,56.25
2022-12-11T08:36:49.334Z,56.25
2022-12-11T08:37:49.304Z,56.25
2022-12-11T08:38:49.304Z,56.25
2022-12-11T08:39:49.302Z,56.25
2022-12-11T08:40:49.264Z,50.62
2022-12-11T08:41:49.264Z,50.62
2022-12-11T08:42:49.235Z,50.62
2022-12-11T08:43:49.243Z,50.62
2022-12-11T08:44:49.224Z,56.25
2022-12-11T08:45:49.262Z,56.25
2022-12-11T08:46:49.183Z,61.88
2022-12-11T08:47:49.182Z,61.88
2022-12-11T08:48:49.160Z,61.88
2022-12-11T08:49:49.163Z,61.88
2022-12-11T08:50:49.132Z,67.50
2022-12-11T08:51:49.131Z,67.50
2022-12-11T08:52:49.110Z,67.50
2022-12-11T08:53:49.115Z,67.50
2022-12-11T08:54:49.098Z,67.50
2022-12-11T08:55:49.108Z,67.50
2022-12-11T08:56:51.331Z,61.88
2022-12-11T08:57:50.073Z,61.88
2022-12-11T08:58:49.029Z,61.88
2022-12-11T08:59:49.040Z,61.88
2022-12-11T09:00:49.020Z,67.50
2022-12-11T09:01:49.097Z,67.50
2022-12-11T09:02:49.049Z,67.50
2022-12-11T09:03:48.968Z,67.50
2022-12-11T09:04:48.976Z,67.50
2022-12-11T09:05:48.949Z,67.50
2022-12-11T09:06:48.926Z,67.50
2022-12-11T09:07:48.964Z,67.50
2022-12-11T09:08:52.554Z,67.50
2022-12-11T09:09:48.915Z,67.50
2022-12-11T09:10:48.877Z,73.12
2022-12-11T09:11:48.866Z,73.12
2022-12-11T09:12:48.856Z,73.12
2022-12-11T09:13:48.845Z,73.12
2022-12-11T09:14:48.835Z,73.12
2022-12-11T09:15:48.833Z,73.12
2022-12-11T09:16:48.796Z,73.12
2022-12-11T09:17:48.795Z,78.75
2022-12-11T09:18:48.778Z,78.75
2022-12-11T09:19:48.783Z,84.38
2022-12-11T09:20:48.753Z,90.00
2022-12-11T09:21:48.744Z,95.62
2022-12-11T09:22:48.734Z,101.25
2022-12-11T09:23:48.723Z,106.88
2022-12-11T09:24:48.721Z,112.50
2022-12-11T09:25:48.691Z,123.75
2022-12-11T09:26:48.698Z,123.75
2022-12-11T09:27:48.670Z,129.38
2022-12-11T09:28:48.643Z,129.38
2022-12-11T09:29:48.671Z,135.00
2022-12-11T09:30:48.706Z,140.62
2022-12-11T09:31:48.625Z,140.62
2022-12-11T09:32:48.620Z,140.62
2022-12-11T09:33:48.588Z,140.62
2022-12-11T09:34:48.590Z,140.62
2022-12-11T09:35:48.612Z,140.62
2022-12-11T09:36:48.555Z,140.62
2022-12-11T09:37:48.534Z,135.00
2022-12-11T09:38:48.533Z,135.00
2022-12-11T09:39:48.539Z,135.00
2022-12-11T09:40:48.498Z,129.38
2022-12-11T09:41:48.495Z,123.75
2022-12-11T09:42:48.464Z,118.12
2022-12-11T09:43:48.467Z,112.50
2022-12-11T09:44:48.456Z,106.88
2022-12-11T09:45:48.568Z,106.88
2022-12-11T09:46:48.502Z,112.50
2022-12-11T09:47:48.439Z,118.12
2022-12-11T09:48:48.400Z,123.75
2022-12-11T09:49:48.427Z,135.00
2022-12-11T09:50:48.387Z,135.00
2022-12-11T09:51:48.358Z,140.62
2022-12-11T09:52:48.355Z,140.62
2022-12-11T09:53:48.327Z,140.62
2022-12-11T09:54:48.328Z,135.00
2022-12-11T09:55:48.315Z,129.38
2022-12-11T09:56:48.286Z,129.38
2022-12-11T09:57:48.295Z,129.38
2022-12-11T09:58:48.254Z,135.00
2022-12-11T09:59:48.276Z,135.00
2022-12-11T10:00:48.264Z,135.00
2022-12-11T10:01:48.258Z,135.00
2022-12-11T10:02:48.270Z,140.62
2022-12-11T10:03:48.205Z,140.62
2022-12-11T10:04:48.207Z,140.62
2022-12-11T10:05:48.196Z,135.00
2022-12-11T10:06:48.162Z,135.00
2022-12-11T10:07:48.190Z,129.38
2022-12-11T10:08:48.135Z,123.75
2022-12-11T10:09:48.145Z,123.75
2022-12-11T10:10:48.123Z,129.38
2022-12-11T10:11:54.441Z,129.38
2022-12-11T10:12:49.121Z,135.00
2022-12-11T10:13:48.083Z,135.00
2022-12-11T10:14:48.127Z,135.00
2022-12-11T10:15:48.147Z,135.00
2022-12-11T10:16:48.021Z,135.00
2022-12-11T10:17:48.031Z,135.00
2022-12-11T10:18:48.014Z,135.00
2022-12-11T10:19:48.032Z,129.38
2022-12-11T10:20:47.986Z,129.38
2022-12-11T10:21:47.971Z,129.38
2022-12-11T10:22:47.960Z,129.38
2022-12-11T10:23:47.977Z,123.75
2022-12-11T10:25:48.928Z,123.75
2022-12-11T10:26:47.904Z,123.75
2022-12-11T10:27:47.888Z,123.75
2022-12-11T10:28:47.877Z,123.75
2022-12-11T10:29:47.886Z,123.75
2022-12-11T10:30:47.950Z,123.75
2022-12-11T10:31:50.364Z,123.75
2022-12-11T10:32:47.816Z,123.75
2022-12-11T10:33:47.815Z,129.38
2022-12-11T10:34:47.817Z,129.38
2022-12-11T10:35:47.787Z,129.38
2022-12-11T10:36:47.785Z,123.75
2022-12-11T10:37:47.795Z,123.75
2022-12-11T10:38:47.746Z,118.12
2022-12-11T10:39:47.760Z,118.12
2022-12-11T10:40:47.715Z,118.12
2022-12-11T10:41:47.704Z,112.50
2022-12-11T10:42:47.706Z,112.50
2022-12-11T10:43:47.685Z,112.50
2022-12-11T10:44:47.673Z,112.50
2022-12-11T10:45:47.654Z,112.50
2022-12-11T10:46:47.694Z,106.88
2022-12-11T10:47:47.632Z,101.25
2022-12-11T10:48:47.639Z,95.62
2022-12-11T10:49:47.612Z,90.00
2022-12-11T10:50:47.584Z,84.38
2022-12-11T10:51:47.583Z,78.75
2022-12-11T10:52:47.553Z,78.75
2022-12-11T10:53:47.557Z,73.12
2022-12-11T10:54:47.552Z,67.50
2022-12-11T10:55:47.520Z,67.50
2022-12-11T10:56:47.523Z,67.50
2022-12-11T10:57:47.506Z,67.50
2022-12-11T10:58:47.486Z,67.50
2022-12-11T10:59:47.509Z,61.88
2022-12-11T11:00:47.462Z,61.88
2022-12-11T11:01:47.553Z,61.88
2022-12-11T11:02:47.455Z,56.25
2022-12-11T11:03:47.421Z,56.25
2022-12-11T11:04:47.416Z,50.62
2022-12-11T11:05:49.476Z,50.62
2022-12-11T11:06:47.388Z,50.62
2022-12-11T11:07:47.435Z,50.62
2022-12-11T11:08:47.350Z,45.00
2022-12-11T11:09:47.359Z,45.00
2022-12-11T11:10:47.327Z,45.00
2022-12-11T11:11:47.317Z,39.38
2022-12-11T11:12:47.308Z,39.38
2022-12-11T11:13:47.317Z,45.00
2022-12-11T11:14:47.286Z,45.00
2022-12-11T11:15:47.320Z,45.00
2022-12-11T11:16:47.253Z,45.00
2022-12-11T11:17:54.681Z,45.00
2022-12-11T11:18:48.243Z,50.62
2022-12-11T11:19:47.243Z,50.62
2022-12-11T11:20:47.214Z,56.25
2022-12-11T11:21:47.187Z,56.25
2022-12-11T11:22:47.267Z,61.88
2022-12-11T11:23:51.836Z,67.50
2022-12-11T11:24:48.422Z,67.50
2022-12-11T11:25:47.130Z,73.12
2022-12-11T11:27:12.317Z,73.12
2022-12-11T11:27:48.120Z,78.75
2022-12-11T11:28:47.102Z,78.75
2022-12-11T11:29:52.784Z,78.75
2022-12-11T11:30:48.139Z,78.75
2022-12-11T11:31:47.054Z,78.75
2022-12-11T11:32:47.051Z,78.75
2022-12-11T11:33:47.047Z,78.75
2022-12-11T11:34:47.040Z,78.75
2022-12-11T11:35:47.023Z,78.75
2022-12-11T11:36:46.983Z,78.75
2022-12-11T11:37:46.981Z,84.38
2022-12-11T11:38:46.983Z,84.38
2022-12-11T11:39:46.973Z,90.00
2022-12-11T11:40:46.947Z,95.62
2022-12-11T11:41:46.930Z,95.62
2022-12-11T11:42:46.924Z,101.25
2022-12-11T11:43:46.915Z,101.25
2022-12-11T11:44:46.912Z,106.88
2022-12-11T11:45:46.879Z,112.50
2022-12-11T11:46:46.957Z,112.50
2022-12-11T11:47:46.863Z,118.12
2022-12-11T11:48:46.844Z,123.75
2022-12-11T11:49:46.850Z,129.38
2022-12-11T11:50:46.815Z,135.00
2022-12-11T11:51:46.800Z,135.00
2022-12-11T11:52:46.779Z,135.00
2022-12-11T11:53:46.767Z,140.62
2022-12-11T11:54:46.766Z,146.25
2022-12-11T11:55:46.745Z,146.25
2022-12-11T11:56:46.731Z,140.62
2022-12-11T11:57:46.716Z,140.62
2022-12-11T11:58:46.756Z,146.25
2022-12-11T11:59:46.717Z,146.25
2022-12-11T12:00:46.693Z,146.25
2022-12-11T12:01:46.678Z,140.62
2022-12-11T12:02:46.690Z,135.00
2022-12-11T12:03:46.646Z,129.38
2022-12-11T12:04:46.643Z,123.75
2022-12-11T12:05:46.613Z,112.50
2022-12-11T12:06:50.735Z,106.88
2022-12-11T12:07:46.644Z,101.25
2022-12-11T12:08:46.578Z,95.62
2022-12-11T12:09:46.641Z,90.00
2022-12-11T12:10:46.595Z,84.38
2022-12-11T12:11:46.533Z,84.38
2022-12-11T12:12:46.515Z,78.75
2022-12-11T12:13:50.411Z,78.75
2022-12-11T12:14:53.743Z,78.75
2022-12-11T12:15:47.485Z,73.12
2022-12-11T12:16:53.980Z,73.12
2022-12-11T12:17:52.035Z,73.12
2022-12-11T12:18:47.464Z,73.12
2022-12-11T12:19:46.455Z,73.12
2022-12-11T12:20:46.421Z,73.12
2022-12-11T12:21:46.399Z,67.50
2022-12-11T12:22:46.419Z,67.50
2022-12-11T12:23:46.389Z,61.88
2022-12-11T12:24:46.373Z,61.88
2022-12-11T12:25:46.341Z,61.88
2022-12-11T12:26:46.330Z,61.88
2022-12-11T12:27:53.669Z,56.25
2022-12-11T12:28:47.314Z,56.25
2022-12-11T12:29:46.310Z,56.25
2022-12-11T12:30:46.298Z,56.25
2022-12-11T12:31:46.345Z,56.25
2022-12-11T12:32:46.273Z,56.25
2022-12-11T12:33:54.268Z,56.25
2022-12-11T12:34:46.251Z,56.25
2022-12-11T12:35:46.225Z,56.25
2022-12-11T12:36:46.217Z,56.25
2022-12-11T12:37:46.196Z,61.88
2022-12-11T12:38:46.187Z,61.88
2022-12-11T12:39:46.192Z,61.88
2022-12-11T12:40:46.168Z,61.88
2022-12-11T12:41:46.197Z,61.88
2022-12-11T12:42:46.144Z,61.88
2022-12-11T12:43:46.148Z,61.88
2022-12-11T12:44:46.127Z,61.88
2022-12-11T12:45:46.162Z,61.88
2022-12-11T12:46:46.105Z,61.88
2022-12-11T12:47:50.390Z,61.88
2022-12-11T12:48:47.078Z,61.88
2022-12-11T12:49:46.052Z,61.88
2022-12-11T12:50:46.029Z,61.88
2022-12-11T12:51:46.033Z,56.25
2022-12-11T12:52:46.011Z,56.25
2022-12-11T12:53:45.994Z,56.25
2022-12-11T12:54:45.985Z,56.25
2022-12-11T12:55:45.961Z,56.25
2022-12-11T12:56:45.992Z,56.25
2022-12-11T12:57:45.931Z,56.25
2022-12-11T12:58:45.939Z,56.25
2022-12-11T12:59:45.913Z,56.25
2022-12-11T13:00:45.932Z,56.25
2022-12-11T13:01:45.910Z,56.25
2022-12-11T13:02:45.870Z,61.88
2022-12-11T13:03:45.851Z,61.88
2022-12-11T13:05:01.185Z,61.88